Time;durP1;ratioP1;P1;durP2;ratioP2;P2;SDS_P1;SDS_P2;PMS_P1;PMS_P2;Temp;Humidity;BMP_temperature;BMP_pressure;BME280_temperature;BME280_humidity;BME280_pressure;Samples;Min_cycle;Max_cycle;Signal;HPM_P1;HPM_P2
2023/03/03 00:01:28;;;;;;;;;;;;;;;;;;5847111;24;20314;-86
2023/03/03 00:04:40;;;;;;;;;;;;;;;;;;5762528;24;20073;-87
2023/03/03 00:16:50;;;;;;;;;;;;;;;;;;;;;
2023/03/03 00:19:50;;;;;;;;;;;;;;;;;;5968646;23;20001;-86
2023/03/03 00:22:45;;;;;;;;;;;;;;;;;;6001218;23;20324;-87
2023/03/03 00:25:44;;;;;;;;;;;;;;;;;;;;;
2023/03/03 00:28:35;;;;;;;;;;;;;;;;;;6006940;23;20506;-87
2023/03/03 00:31:06;;;;;;;;;;;;;;;;;;5995861;23;19922;-86
2023/03/03 00:33:33;;;;;;;;;;;;;;;;;;5994445;23;20339;-87
2023/03/03 00:36:03;;;;;;;;;;;;;;;;;;5999114;23;19968;-86
2023/03/03 00:38:44;;;;;;;;;;;;;;;;;;5993490;23;19941;-86
2023/03/03 00:41:18;;;;;;;;;;;;;;;;;;5996369;23;19926;-87
2023/03/03 00:43:46;;;;;;;;;;;;;;;;;;6014880;23;19928;-86
2023/03/03 00:46:13;;;;;;;;;;;;;;;;;;6038004;23;19921;-86
2023/03/03 00:48:53;;;;;;;;;;;;;;;;;;6081804;23;19921;-86
2023/03/03 00:51:25;;;;;;;;;;;;;;;;;;6077146;23;19917;-86
2023/03/03 00:53:52;;;;;;;;;;;;;;;;;;6090072;23;19921;-86
2023/03/03 00:56:20;;;;;;;;;;;;;;;;;;6083357;23;19924;-89
2023/03/03 00:59:06;;;;;;;;;;;;;;;;;;6046832;23;20061;-87
2023/03/03 01:01:37;;;;;;;;;;;;;;;;;;6046002;23;19941;-86
2023/03/03 01:04:04;;;;;;;;;;;;;;;;;;6028119;23;20252;-87
2023/03/03 01:06:32;;;;;;;;;;;;;;;;;;6024803;23;19922;-86
2023/03/03 01:09:05;;;;;;;;;;;;;;;;;;6064613;23;20021;-87
2023/03/03 01:11:32;;;;;;;;;;;;;;;;;;6057775;23;19932;-87
2023/03/03 01:14:00;;;;;;;;;;;;;;;;;;6084059;23;19978;-87
2023/03/03 01:16:27;;;;;;;;;;;;;;;;;;6057693;23;19960;-86
2023/03/03 01:18:54;;;;;;;;;;;;;;;;;;6081576;23;19944;-86
2023/03/03 01:21:20;;;;;;;;;;;;;;;;;;6106469;23;19952;-87
2023/03/03 01:23:47;;;;;;;;;;;;;;;;;;6108041;23;19925;-86
2023/03/03 01:26:14;;;;;;;;;;;;;;;;;;6061886;23;20253;-87
2023/03/03 01:28:39;;;;;;;;;;;;;;;;;;6106062;23;20421;-86
2023/03/03 01:31:07;;;;;;;;;;;;;;;;;;6141194;23;19924;-87
2023/03/03 01:33:34;;;;;;;;;;;;;;;;;;6141125;23;19920;-86
2023/03/03 01:36:00;;;;;;;;;;;;;;;;;;6170949;23;19927;-86
2023/03/03 01:38:26;;;;;;;;;;;;;;;;;;6142929;23;19999;-86
2023/03/03 01:41:02;;;;;;;;;;;;;;;;;;6171467;23;19920;-86
2023/03/03 01:43:33;;;;;;;;;;;;;;;;;;6165181;23;19920;-86
2023/03/03 01:46:02;;;;;;;;;;;;;;;;;;6170336;23;19920;-86
2023/03/03 01:48:29;;;;;;;;;;;;;;;;;;6169729;23;20253;-86
2023/03/03 01:51:03;;;;;;;;;;;;;;;;;;6173104;23;19920;-86
2023/03/03 01:53:29;;;;;;;;;;;;;;;;;;6168302;23;19938;-87
2023/03/03 01:56:03;;;;;;;;;;;;;;;;;;6147157;23;19920;-87
2023/03/03 01:58:34;;;;;;;;;;;;;;;;;;6143606;23;19920;-87
2023/03/03 02:01:04;;;;;;;;;;;;;;;;;;6194978;23;19927;-87
2023/03/03 02:03:35;;;;;;;;;;;;;;;;;;6171446;23;19923;-87
2023/03/03 02:06:03;;;;;;;;;;;;;;;;;;6203384;23;19947;-86
2023/03/03 02:08:29;;;;;;;;;;;;;;;;;;6204968;23;19919;-87
2023/03/03 02:10:57;;;;;;;;;;;;;;;;;;6179241;23;19934;-86
2023/03/03 02:13:23;;;;;;;;;;;;;;;;;;6203081;23;19994;-86
2023/03/03 02:16:06;;;;;;;;;;;;;;;;;;6203975;23;19919;-86
2023/03/03 02:18:36;;;;;;;;;;;;;;;;;;6204035;23;20311;-87
2023/03/03 02:21:04;;;;;;;;;;;;;;;;;;6203511;23;19916;-87
2023/03/03 02:23:31;;;;;;;;;;;;;;;;;;6197875;23;19931;-86
2023/03/03 02:25:57;;;;;;;;;;;;;;;;;;6202227;23;19915;-86
2023/03/03 02:28:25;;;;;;;;;;;;;;;;;;6146699;23;19916;-86
2023/03/03 02:30:52;;;;;;;;;;;;;;;;;;6200490;23;19943;-86
2023/03/03 02:33:18;;;;;;;;;;;;;;;;;;6197963;23;19920;-86
2023/03/03 02:35:46;;;;;;;;;;;;;;;;;;6176827;23;20268;-86
2023/03/03 02:38:12;;;;;;;;;;;;;;;;;;6176905;23;19919;-86
2023/03/03 02:40:39;;;;;;;;;;;;;;;;;;6202913;23;19922;-87
2023/03/03 02:43:08;;;;;;;;;;;;;;;;;;6180197;23;19920;-86
2023/03/03 02:45:35;;;;;;;;;;;;;;;;;;6177975;23;19946;-87
2023/03/03 02:48:05;;;;;;;;;;;;;;;;;;6203700;23;19920;-86
2023/03/03 02:50:41;;;;;;;;;;;;;;;;;;6200833;23;20304;-86
2023/03/03 02:53:22;;;;;;;;;;;;;;;;;;6106789;23;19921;-87
2023/03/03 02:55:51;;;;;;;;;;;;;;;;;;6061706;23;19921;-86
2023/03/03 02:58:21;;;;;;;;;;;;;;;;;;6105204;23;19920;-87
2023/03/03 03:00:47;;;;;;;;;;;;;;;;;;6110918;23;19928;-86
2023/03/03 03:03:16;;;;;;;;;;;;;;;;;;6026917;23;19925;-86
2023/03/03 03:05:46;;;;;;;;;;;;;;;;;;6049910;23;20353;-86
2023/03/03 03:08:16;;;;;;;;;;;;;;;;;;6027123;23;19969;-86
2023/03/03 03:10:47;;;;;;;;;;;;;;;;;;6050429;23;19921;-86
2023/03/03 03:13:18;;;;;;;;;;;;;;;;;;6050790;23;19996;-86
2023/03/03 03:16:02;;;;;;;;;;;;;;;;;;6054447;23;19976;-86
2023/03/03 03:18:29;;;;;;;;;;;;;;;;;;6025040;23;19922;-86
2023/03/03 03:20:56;;;;;;;;;;;;;;;;;;6027562;23;20027;-86
2023/03/03 03:23:24;;;;;;;;;;;;;;;;;;6040605;23;19917;-86
2023/03/03 03:25:51;;;;;;;;;;;;;;;;;;6139328;23;19939;-86
2023/03/03 03:28:22;;;;;;;;;;;;;;;;;;6135690;23;20612;-87
2023/03/03 03:30:49;;;;;;;;;;;;;;;;;;6113877;23;19971;-87
2023/03/03 03:33:30;;;;;;;;;;;;;;;;;;;;;
2023/03/03 03:36:05;;;;;;;;;;;;;;;;;;6169830;23;20408;-86
2023/03/03 03:38:44;;;;;;;;;;;;;;;;;;6167614;23;19917;-86
2023/03/03 03:41:11;;;;;;;;;;;;;;;;;;6166676;23;19920;-86
2023/03/03 03:43:40;;;;;;;;;;;;;;;;;;6168991;23;19920;-86
2023/03/03 03:46:08;;;;;;;;;;;;;;;;;;6146549;23;19931;-87
2023/03/03 03:48:39;;;;;;;;;;;;;;;;;;6166791;23;19974;-86
2023/03/03 03:51:22;;;;;;;;;;;;;;;;;;6167541;23;19983;-86
2023/03/03 03:53:52;;;;;;;;;;;;;;;;;;6169226;23;19921;-86
2023/03/03 03:56:29;;;;;;;;;;;;;;;;;;6168670;23;19966;-86
2023/03/03 03:58:59;;;;;;;;;;;;;;;;;;6168651;23;19970;-86
2023/03/03 04:01:27;;;;;;;;;;;;;;;;;;6165127;23;20003;-85
2023/03/03 04:03:54;;;;;;;;;;;;;;;;;;6171988;23;19987;-86
2023/03/03 04:06:21;;;;;;;;;;;;;;;;;;6167770;23;19916;-86
2023/03/03 04:08:50;;;;;;;;;;;;;;;;;;6169049;23;20308;-86
2023/03/03 04:11:19;;;;;;;;;;;;;;;;;;6173122;23;19930;-87
2023/03/03 04:13:46;;;;;;;;;;;;;;;;;;6173671;23;19916;-86
2023/03/03 04:16:31;;;;;;;;;;;;;;;;;;6175082;23;20387;-86
2023/03/03 04:18:58;;;;;;;;;;;;;;;;;;6148331;23;20400;-86
2023/03/03 04:21:28;;;;;;;;;;;;;;;;;;6141053;23;20416;-87
2023/03/03 04:23:54;;;;;;;;;;;;;;;;;;6169747;23;19927;-86
2023/03/03 04:26:21;;;;;;;;;;;;;;;;;;6166669;23;19920;-86
2023/03/03 04:28:49;;;;;;;;;;;;;;;;;;6168147;23;19927;-86
2023/03/03 04:31:15;;;;;;;;;;;;;;;;;;6166336;23;20253;-87
2023/03/03 04:33:44;;;;;;;;;;;;;;;;;;6171148;23;19924;-87
2023/03/03 04:36:17;;;;;;;;;;;;;;;;;;6166989;23;19924;-87
2023/03/03 04:38:43;;;;;;;;;;;;;;;;;;6168111;23;19968;-87
2023/03/03 04:41:11;;;;;;;;;;;;;;;;;;6146493;23;19924;-87
2023/03/03 04:43:40;;;;;;;;;;;;;;;;;;6140391;23;19921;-87
2023/03/03 04:46:07;;;;;;;;;;;;;;;;;;6168760;23;20316;-86
2023/03/03 04:48:34;;;;;;;;;;;;;;;;;;6141470;23;19916;-87
2023/03/03 04:51:00;;;;;;;;;;;;;;;;;;6145383;23;19920;-87
2023/03/03 04:53:37;;;;;;;;;;;;;;;;;;6140144;23;20030;-86
2023/03/03 04:56:25;;;;;;;;;;;;;;;;;;6163817;23;19954;-87
2023/03/03 04:58:55;;;;;;;;;;;;;;;;;;6166213;23;19967;-87
2023/03/03 05:01:47;;;;;;;;;;;;;;;;;;6108080;23;20238;-87
2023/03/03 05:04:15;;;;;;;;;;;;;;;;;;6106048;23;19925;-86
2023/03/03 05:06:49;;;;;;;;;;;;;;;;;;6078290;23;19971;-87
2023/03/03 05:09:20;;;;;;;;;;;;;;;;;;6093867;23;19951;-87
2023/03/03 05:11:58;;;;;;;;;;;;;;;;;;6139186;23;19974;-87
2023/03/03 05:14:26;;;;;;;;;;;;;;;;;;6086308;23;19917;-86
2023/03/03 05:17:03;;;;;;;;;;;;;;;;;;6043889;23;19927;-86
2023/03/03 05:19:34;;;;;;;;;;;;;;;;;;6112571;23;20241;-87
2023/03/03 05:22:01;;;;;;;;;;;;;;;;;;6136283;23;19930;-87
2023/03/03 05:24:49;;;;;;;;;;;;;;;;;;6102922;23;20014;-87
2023/03/03 05:27:19;;;;;;;;;;;;;;;;;;6089040;23;19927;-87
2023/03/03 05:29:47;;;;;;;;;;;;;;;;;;6090790;23;20017;-86
2023/03/03 05:32:20;;;;;;;;;;;;;;;;;;6111928;23;20476;-87
2023/03/03 05:34:53;;;;;;;;;;;;;;;;;;6114744;23;19927;-87
2023/03/03 05:37:24;;;;;;;;;;;;;;;;;;6111023;23;19927;-86
2023/03/03 05:39:51;;;;;;;;;;;;;;;;;;6113671;23;20339;-87
2023/03/03 05:42:18;;;;;;;;;;;;;;;;;;6086448;23;20003;-86
2023/03/03 05:44:51;;;;;;;;;;;;;;;;;;6091720;23;19971;-87
2023/03/03 05:47:30;;;;;;;;;;;;;;;;;;6169477;23;19920;-87
2023/03/03 05:50:22;;;;;;;;;;;;;;;;;;6169570;23;19918;-86
2023/03/03 05:52:51;;;;;;;;;;;;;;;;;;6146487;23;20341;-86
2023/03/03 05:55:21;;;;;;;;;;;;;;;;;;6142105;23;19920;-87
2023/03/03 05:57:47;;;;;;;;;;;;;;;;;;6146264;23;19920;-87
2023/03/03 06:00:16;;;;;;;;;;;;;;;;;;6147368;23;20467;-87
2023/03/03 06:02:46;;;;;;;;;;;;;;;;;;6144798;23;19924;-87
2023/03/03 06:05:17;;;;;;;;;;;;;;;;;;6143955;23;19928;-86
2023/03/03 06:07:48;;;;;;;;;;;;;;;;;;6175118;23;19974;-87
2023/03/03 06:10:14;;;;;;;;;;;;;;;;;;6151315;23;20340;-87
2023/03/03 06:12:57;;;;;;;;;;;;;;;;;;6173596;23;19920;-87
2023/03/03 06:15:24;;;;;;;;;;;;;;;;;;6171274;23;19927;-87
2023/03/03 06:17:55;;;;;;;;;;;;;;;;;;6147221;23;19928;-87
2023/03/03 06:20:29;;;;;;;;;;;;;;;;;;6167628;23;19920;-87
2023/03/03 06:23:03;;;;;;;;;;;;;;;;;;6166822;23;19924;-87
2023/03/03 06:25:43;;;;;;;;;;;;;;;;;;6177713;23;19920;-87
2023/03/03 06:28:19;;;;;;;;;;;;;;;;;;6165891;23;20011;-87
2023/03/03 06:30:45;;;;;;;;;;;;;;;;;;6140029;23;19927;-87
2023/03/03 06:33:12;;;;;;;;;;;;;;;;;;6168376;23;20303;-87
2023/03/03 06:35:44;;;;;;;;;;;;;;;;;;6140021;23;19920;-87
2023/03/03 06:38:16;;;;;;;;;;;;;;;;;;6167595;23;19921;-86
2023/03/03 06:40:42;;;;;;;;;;;;;;;;;;6170582;23;19927;-87
2023/03/03 06:43:13;;;;;;;;;;;;;;;;;;6121896;23;19924;-87
2023/03/03 06:45:59;;;;;;;;;;;;;;;;;;6171353;23;19919;-87
2023/03/03 06:48:43;;;;;;;;;;;;;;;;;;6107679;23;20373;-87
2023/03/03 06:51:30;;;;;;;;;;;;;;;;;;6081275;23;19980;-86
2023/03/03 06:53:58;;;;;;;;;;;;;;;;;;6095261;23;19924;-87
2023/03/03 06:59:20;;;;;;;;;;;;;;;;;;6110479;23;19927;-86
2023/03/03 07:01:52;;;;;;;;;;;;;;;;;;6111137;23;19924;-87
2023/03/03 07:04:27;;;;;;;;;;;;;;;;;;6109560;23;20127;-87
2023/03/03 07:07:00;;;;;;;;;;;;;;;;;;6107907;23;19928;-87
2023/03/03 07:09:37;;;;;;;;;;;;;;;;;;6106150;23;19925;-87
2023/03/03 07:12:03;;;;;;;;;;;;;;;;;;6108547;23;19920;-87
2023/03/03 07:14:41;;;;;;;;;;;;;;;;;;6058828;23;19927;-86
2023/03/03 07:17:09;;;;;;;;;;;;;;;;;;6108463;23;19992;-87
2023/03/03 07:19:40;;;;;;;;;;;;;;;;;;6111519;23;20297;-87
2023/03/03 07:22:11;;;;;;;;;;;;;;;;;;6089012;23;19937;-86
2023/03/03 07:25:21;;;;;;;;;;;;;;;;;;;;;
2023/03/03 07:28:20;;;;;;;;;;;;;;;;;;6021334;23;19974;-86
2023/03/03 07:37:03;;;;;;;;;;;;;;;;;;;;;
2023/03/03 07:43:16;;;;;;;;;;;;;;;;;;6012564;23;19928;-86
2023/03/03 07:55:21;;;;;;;;;;;;;;;;;;5934993;24;20412;-86
2023/03/03 08:07:15;;;;;;;;;;;;;;;;;;5779310;24;20043;-86
2023/03/03 08:09:46;;;;;;;;;;;;;;;;;;5774871;24;19925;-87
2023/03/03 08:12:21;;;;;;;;;;;;;;;;;;5755218;24;19933;-86
2023/03/03 08:14:48;;;;;;;;;;;;;;;;;;5777926;24;19925;-86
2023/03/03 08:17:20;;;;;;;;;;;;;;;;;;5757608;24;19960;-86
2023/03/03 08:19:53;;;;;;;;;;;;;;;;;;5758749;24;19932;-86
2023/03/03 08:22:23;;;;;;;;;;;;;;;;;;5840436;24;19923;-87
2023/03/03 08:24:51;;;;;;;;;;;;;;;;;;6019915;23;20643;-86
2023/03/03 08:27:18;;;;;;;;;;;;;;;;;;6019267;23;19996;-87
2023/03/03 08:29:46;;;;;;;;;;;;;;;;;;6100079;23;20302;-87
2023/03/03 08:32:16;;;;;;;;;;;;;;;;;;6058550;23;19928;-86
2023/03/03 08:44:18;;;;;;;;;;;;;;;;;;;;;
2023/03/03 08:50:30;;;;;;;;;;;;;;;;;;;;;
2023/03/03 08:53:29;;;;;;;;;;;;;;;;;;5917217;24;19923;-86
2023/03/03 09:11:52;;;;;;;;;;;;;;;;;;5838010;24;20057;-85
2023/03/03 09:14:39;;;;;;;;;;;;;;;;;;5834986;24;19922;-86
2023/03/03 09:20:31;;;;;;;;;;;;;;;;;;5778508;24;19985;-87
2023/03/03 09:23:29;;;;;;;;;;;;;;;;;;5794832;24;19986;-85
2023/03/03 09:26:42;;;;;;;;;;;;;;;;;;;;;
2023/03/03 09:35:47;;;;;;;;;;;;;;;;;;;;;
2023/03/03 09:41:36;;;;;;;;;;;;;;;;;;5808051;24;20000;-86
2023/03/03 09:44:39;;;;;;;;;;;;;;;;;;5774560;24;19978;-87
2023/03/03 09:47:48;;;;;;;;;;;;;;;;;;;;;
2023/03/03 09:56:44;;;;;;;;;;;;;;;;;;6134529;22;19934;-90
2023/03/03 09:59:24;;;;;;;;;;;;;;;;;;6181013;23;19965;-91
2023/03/03 11:16:47;;;;;;;;;;;;;;;;;;6251440;22;19951;-82
2023/03/03 11:52:00;;;;;;;;;;;;;;;;;;6262281;22;20073;-82
2023/03/03 14:03:39;;;;;;;;;;;;;;;;;;6167240;23;20343;-85
2023/03/03 14:06:05;;;;;;;;;;;;;;;;;;6197079;23;19946;-85
2023/03/03 14:08:31;;;;;;;;;;;;;;;;;;6197094;23;19920;-84
2023/03/03 14:10:57;;;;;;;;;;;;;;;;;;6176209;23;19997;-85
2023/03/03 14:13:23;;;;;;;;;;;;;;;;;;6198287;23;20329;-85
2023/03/03 14:15:52;;;;;;;;;;;;;;;;;;6177563;23;19915;-92
2023/03/03 15:21:54;;;;;;;;;;;;;;;;;;6229822;22;19927;-87
2023/03/03 15:24:54;;;;;;;;;;;;;;;;;;6132896;23;21000;-87
2023/03/03 15:27:48;;;;;;;;;;;;;;;;;;6131894;23;20404;-87
2023/03/03 15:30:43;;;;;;;;;;;;;;;;;;;;;
2023/03/03 15:33:36;;;;;;;;;;;;;;;;;;;;;
2023/03/03 15:42:49;;;;;;;;;;;;;;;;;;6025044;23;19933;-88
2023/03/03 15:45:46;;;;;;;;;;;;;;;;;;5932016;24;20018;-88
2023/03/03 15:51:22;;;;;;;;;;;;;;;;;;;;;
2023/03/03 15:57:11;;;;;;;;;;;;;;;;;;5991249;23;20666;-88
2023/03/03 16:03:08;;;;;;;;;;;;;;;;;;;;;
2023/03/03 18:31:39;;;;;;;;;;;;;;;;;;6214441;23;19919;-85
2023/03/03 18:34:57;;;;;;;;;;;;;;;;;;;;;
2023/03/03 19:54:44;;;;;;;;;;;;;;;;;;;;;
2023/03/03 20:10:33;;;;;;;;;;;;;;;;;;;;;
2023/03/03 20:23:19;;;;;;;;;;;;;;;;;;;;;
2023/03/03 21:50:34;;;;;;;;;;;;;;;;;;;;;
